Main page
METAR-TAF:

METAR-TAF

Airports :

Sialkot, Pakistan

Sialkot International Airport

latitude: 32-32N, longitude: 74-22E, elevation: 255 m

Current weather observation

The report was made 36 minutes ago, at 20:00 UTC
Wind 2 kt from the Northeast
Temperature 24°C
Humidity 38%
Pressure 1009 hPa
Visibility: 4000 m
Few clouds at a height of 4000 ft
haze

METAR: OPST 302000Z 05002KT 4000 HZ FEW040 24/09 Q1009 NOSIG RH39

Time: 01:36 (20:36 UTC)


TAF: missing

Weather observations and forecasts of more than 4000 airports (METAR and TAF reports).

The available stations are represented by yellow and red dots on the map.

Hover mouse over dot to see the name of the station.

Then click to see weather observations and forecasts.

To change the map : click on the green buttons with a black cross to zoom in, on the green button with a dash to zoom out, or on the green arrows for adjacent maps.


METAR-TAF: